Time;durP1;ratioP1;P1;durP2;ratioP2;P2;SDS_P1;SDS_P2;PMS_P1;PMS_P2;Temp;Humidity;BMP_temperature;BMP_pressure;BME280_temperature;BME280_humidity;BME280_pressure;Samples;Min_cycle;Max_cycle;Signal;HPM_P1;HPM_P2
2021/09/02 00:00:19;;;;;;;24.63;16.07;;;;;;;10.54;95.64;102069.84;677702;29;997;-85
2021/09/02 00:00:39;;;;;;;25.50;16.07;;;;;;;10.54;95.56;102086.41;678529;29;1070;-85
2021/09/02 00:01:00;;;;;;;24.03;15.73;;;;;;;10.58;94.70;102082.13;677437;29;1063;-85
2021/09/02 00:01:20;;;;;;;22.73;15.37;;;;;;;10.63;94.84;102076.94;678270;29;1027;-84
2021/09/02 00:01:41;;;;;;;24.25;15.75;;;;;;;10.62;95.38;102081.31;677512;29;4344;-85
2021/09/02 00:02:01;;;;;;;24.77;16.03;;;;;;;10.58;95.67;102082.13;679491;28;1181;-84
2021/09/02 00:02:22;;;;;;;25.42;16.05;;;;;;;10.56;96.02;102078.56;677513;29;1173;-85
2021/09/02 00:02:42;;;;;;;24.23;15.67;;;;;;;10.51;96.29;102081.13;680887;28;1950;-85
2021/09/02 00:03:03;;;;;;;25.08;15.52;;;;;;;10.51;96.44;102086.34;680334;28;3937;-85
2021/09/02 00:03:23;;;;;;;24.35;15.85;;;;;;;10.49;96.58;102077.56;678074;29;1364;-84
2021/09/02 00:03:44;;;;;;;24.60;16.07;;;;;;;10.48;96.66;102074.94;675881;29;1170;-85
2021/09/02 00:04:04;;;;;;;27.07;16.10;;;;;;;10.51;95.91;102075.03;672604;29;934;-85
2021/09/02 00:04:24;;;;;;;25.07;15.80;;;;;;;10.53;95.72;102074.16;675485;29;981;-85
2021/09/02 00:04:44;;;;;;;21.90;14.83;;;;;;;10.57;95.97;102078.59;672313;29;4353;-85
2021/09/02 00:05:06;;;;;;;21.27;15.02;;;;;;;10.57;96.09;102075.97;673007;29;1914;-85
2021/09/02 00:05:26;;;;;;;23.25;15.15;;;;;;;10.57;95.68;102080.34;675538;29;1172;-85
2021/09/02 00:05:46;;;;;;;24.13;15.80;;;;;;;10.56;95.81;102078.56;678658;29;2196;-85
2021/09/02 00:06:07;;;;;;;24.02;16.27;;;;;;;10.56;95.97;102075.97;678251;29;2280;-85
2021/09/02 00:06:27;;;;;;;23.90;15.90;;;;;;;10.57;95.96;102075.13;673166;29;1716;-85
2021/09/02 00:06:47;;;;;;;22.47;15.40;;;;;;;10.60;95.85;102079.53;678336;29;1240;-85
2021/09/02 00:07:08;;;;;;;22.80;15.73;;;;;;;10.61;95.82;102073.44;677942;29;833;-85
2021/09/02 00:07:29;;;;;;;24.07;15.70;;;;;;;10.60;95.59;102069.94;678044;28;4397;-84
2021/09/02 00:07:50;;;;;;;24.42;15.85;;;;;;;10.62;95.09;102072.56;681354;28;1320;-85
2021/09/02 00:08:10;;;;;;;22.75;15.05;;;;;;;10.62;95.23;102076.09;677080;28;1364;-85
2021/09/02 00:08:31;;;;;;;23.25;14.85;;;;;;;10.64;95.53;102065.66;676213;28;1157;-85
2021/09/02 00:08:51;;;;;;;25.10;15.83;;;;;;;10.63;95.86;102080.44;670788;29;3238;-84
2021/09/02 00:09:11;;;;;;;24.20;16.03;;;;;;;10.61;95.99;102073.44;673223;29;2920;-85
2021/09/02 00:09:32;;;;;;;25.47;15.67;;;;;;;10.62;95.95;102073.47;675226;28;1221;-85
2021/09/02 00:09:52;;;;;;;21.77;14.65;;;;;;;10.68;95.36;102084.03;673527;29;1243;-84
2021/09/02 00:10:12;;;;;;;20.77;14.50;;;;;;;10.76;94.63;102065.88;675335;29;1153;-84
2021/09/02 00:10:34;;;;;;;20.17;14.80;;;;;;;10.82;94.31;102071.19;675121;29;4318;-85
2021/09/02 00:10:54;;;;;;;21.40;14.75;;;;;;;10.83;95.04;102072.94;670783;29;1241;-85
2021/09/02 00:11:15;;;;;;;22.50;15.03;;;;;;;10.78;95.32;102064.13;671787;29;1090;-85
2021/09/02 00:11:35;;;;;;;21.70;15.05;;;;;;;10.76;94.91;102073.72;667809;29;1534;-85
2021/09/02 00:11:56;;;;;;;20.97;15.23;;;;;;;10.77;95.05;102074.56;668303;29;2025;-85
2021/09/02 00:12:16;;;;;;;21.90;15.02;;;;;;;10.78;94.98;102069.38;667885;29;1595;-85
2021/09/02 00:12:37;;;;;;;21.08;14.65;;;;;;;10.85;94.55;102076.47;673602;29;1273;-84
2021/09/02 00:12:57;;;;;;;20.07;14.17;;;;;;;10.86;94.35;102067.75;676133;29;1266;-85
2021/09/02 00:13:18;;;;;;;20.98;14.65;;;;;;;10.82;95.19;102073.78;678726;29;1456;-85
2021/09/02 00:13:38;;;;;;;22.73;15.20;;;;;;;10.81;95.61;102076.38;677790;29;4330;-85
2021/09/02 00:13:58;;;;;;;23.43;15.40;;;;;;;10.78;95.72;102068.50;675350;29;1027;-85
2021/09/02 00:14:19;;;;;;;22.50;15.13;;;;;;;10.76;96.12;102060.63;675735;29;1246;-84
2021/09/02 00:14:39;;;;;;;22.10;15.03;;;;;;;10.76;95.78;102064.97;678036;29;2390;-85
2021/09/02 00:14:59;;;;;;;22.08;15.20;;;;;;;10.77;95.20;102058.88;678682;29;1320;-85
2021/09/02 00:15:20;;;;;;;22.97;15.03;;;;;;;10.78;94.65;102066.75;678056;29;1188;-85
2021/09/02 00:15:40;;;;;;;21.95;15.20;;;;;;;10.78;95.14;102064.13;675679;29;1292;-85
2021/09/02 00:16:01;;;;;;;25.23;16.10;;;;;;;10.78;95.83;102063.25;676317;29;1316;-84
2021/09/02 00:16:22;;;;;;;24.40;16.25;;;;;;;10.77;95.85;102064.97;673007;29;1205;-85
2021/09/02 00:16:42;;;;;;;25.00;16.50;;;;;;;10.77;95.17;102062.38;672819;29;4320;-84
2021/09/02 00:17:03;;;;;;;25.17;15.67;;;;;;;10.78;95.32;102069.38;674097;29;1232;-85
2021/09/02 00:17:24;;;;;;;21.08;14.52;;;;;;;10.81;94.66;102065.94;673126;29;1126;-85
2021/09/02 00:17:44;;;;;;;22.23;15.07;;;;;;;10.79;95.25;102068.53;671707;29;2181;-85
2021/09/02 00:18:04;;;;;;;23.23;15.97;;;;;;;10.78;95.44;102068.50;676198;29;1342;-85
2021/09/02 00:18:27;;;;;;;22.83;15.70;;;;;;;10.77;95.40;102062.38;677128;29;1017;-85
2021/09/02 00:18:47;;;;;;;22.13;15.48;;;;;;;10.77;94.68;102059.75;677744;29;1352;-85
2021/09/02 00:19:09;;;;;;;22.37;15.23;;;;;;;10.78;95.20;102069.38;673575;29;1099;-85
2021/09/02 00:19:29;;;;;;;22.25;15.25;;;;;;;10.78;95.46;102071.13;671860;29;4355;-84
2021/09/02 00:19:50;;;;;;;22.67;15.00;;;;;;;10.76;95.51;102068.47;670022;29;1115;-85
2021/09/02 00:20:11;;;;;;;22.33;15.63;;;;;;;10.73;95.73;102071.03;669248;29;1353;-85
2021/09/02 00:20:32;;;;;;;22.83;15.75;;;;;;;10.71;95.79;102062.28;668104;29;2492;-85
2021/09/02 00:20:52;;;;;;;26.20;15.98;;;;;;;10.69;96.00;102072.72;670836;29;3008;-85
2021/09/02 00:21:12;;;;;;;25.27;15.47;;;;;;;10.67;95.95;102065.69;673260;29;1270;-84
2021/09/02 00:21:33;;;;;;;22.95;15.50;;;;;;;10.67;95.99;102065.69;673750;29;1114;-85
2021/09/02 00:21:53;;;;;;;22.50;15.17;;;;;;;10.67;95.92;102060.47;673632;29;1296;-85
2021/09/02 00:22:13;;;;;;;22.00;14.85;;;;;;;10.71;95.86;102064.91;669712;29;1099;-85
2021/09/02 00:22:34;;;;;;;23.93;15.50;;;;;;;10.69;95.91;102059.63;671792;29;4371;-84
2021/09/02 00:22:55;;;;;;;24.73;15.40;;;;;;;10.70;95.91;102063.13;673537;29;1083;-85
2021/09/02 00:23:15;;;;;;;23.05;14.95;;;;;;;10.70;95.71;102061.41;675715;29;1560;-84
2021/09/02 00:23:37;;;;;;;21.17;14.90;;;;;;;10.71;96.07;102064.91;678514;29;2845;-85
2021/09/02 00:23:58;;;;;;;22.42;15.15;;;;;;;10.71;95.37;102063.16;680519;29;3467;-85
2021/09/02 00:24:18;;;;;;;21.20;14.10;;;;;;;10.74;95.05;102057.09;680893;29;1232;-85
2021/09/02 00:24:38;;;;;;;20.17;14.27;;;;;;;10.76;95.24;102059.72;675907;29;1254;-84
2021/09/02 00:24:59;;;;;;;20.98;15.35;;;;;;;10.78;95.37;102065.88;675857;29;1910;-85
2021/09/02 00:25:19;;;;;;;21.53;15.30;;;;;;;10.77;95.27;102066.72;678256;29;1341;-84
2021/09/02 00:25:40;;;;;;;22.30;15.27;;;;;;;10.75;95.12;102061.47;678082;29;4341;-84
2021/09/02 00:26:00;;;;;;;23.13;14.90;;;;;;;10.77;94.70;102057.13;678725;29;1462;-85
2021/09/02 00:26:21;;;;;;;22.27;15.00;;;;;;;10.78;94.76;102063.25;680346;29;1137;-85
2021/09/02 00:26:43;;;;;;;23.03;14.83;;;;;;;10.78;94.72;102061.53;676043;29;2466;-85
2021/09/02 00:27:03;;;;;;;22.77;14.95;;;;;;;10.80;94.58;102053.69;678010;28;1261;-85
2021/09/02 00:27:24;;;;;;;22.40;15.18;;;;;;;10.81;94.38;102052.84;678468;29;1306;-85
2021/09/02 00:27:44;;;;;;;22.00;15.07;;;;;;;10.78;94.89;102082.44;678055;29;1225;-85
2021/09/02 00:28:05;;;;;;;22.08;15.52;;;;;;;10.77;95.02;102057.13;678729;29;1084;-85
2021/09/02 00:28:25;;;;;;;22.50;15.40;;;;;;;10.77;95.05;102062.38;678480;29;1106;-85
2021/09/02 00:28:45;;;;;;;22.60;15.32;;;;;;;10.75;95.25;102053.63;678330;29;4387;-84
2021/09/02 00:29:06;;;;;;;21.83;15.17;;;;;;;10.76;95.09;102065.88;680800;28;1287;-85
2021/09/02 00:29:27;;;;;;;23.05;15.18;;;;;;;10.76;95.39;102057.13;678102;28;1878;-85
2021/09/02 00:29:48;;;;;;;21.80;14.60;;;;;;;10.75;95.44;102058.84;675283;29;1972;-85
2021/09/02 00:30:09;;;;;;;23.10;15.30;;;;;;;10.72;95.55;102058.81;672855;29;1358;-85
2021/09/02 00:30:29;;;;;;;23.40;15.57;;;;;;;10.69;95.59;102059.63;675324;29;1446;-84
2021/09/02 00:30:50;;;;;;;23.63;15.35;;;;;;;10.69;96.06;102058.78;676173;29;1327;-84
2021/09/02 00:31:10;;;;;;;22.40;15.38;;;;;;;10.65;96.22;102055.22;676280;29;1296;-85
2021/09/02 00:31:30;;;;;;;22.30;15.37;;;;;;;10.63;96.13;102063.88;676681;29;4372;-85
2021/09/02 00:31:51;;;;;;;22.37;15.20;;;;;;;10.61;96.43;102063.00;680206;29;1226;-85
2021/09/02 00:32:11;;;;;;;23.25;15.43;;;;;;;10.61;95.77;102058.63;681132;29;1340;-85
2021/09/02 00:32:32;;;;;;;23.80;15.48;;;;;;;10.63;95.83;102059.53;677499;29;2169;-85
2021/09/02 00:32:53;;;;;;;23.92;15.35;;;;;;;10.64;95.84;102055.19;678777;29;1494;-84
2021/09/02 00:33:17;;;;;;;24.50;16.23;;;;;;;10.64;96.23;102063.03;678983;29;1429;-85
2021/09/02 00:33:38;;;;;;;24.90;16.00;;;;;;;10.65;96.14;102063.06;677025;29;1157;-85
2021/09/02 00:34:00;;;;;;;26.33;16.20;;;;;;;10.65;96.07;102060.44;675512;29;1106;-85
2021/09/02 00:34:21;;;;;;;27.77;16.25;;;;;;;10.65;95.98;102067.41;678140;29;1497;-85
2021/09/02 00:34:41;;;;;;;25.07;16.20;;;;;;;10.67;95.78;102056.09;677711;29;4373;-85
2021/09/02 00:35:02;;;;;;;23.63;15.18;;;;;;;10.70;95.23;102052.66;675832;29;1676;-85
2021/09/02 00:35:23;;;;;;;22.67;15.52;;;;;;;10.71;95.42;102057.91;676904;29;1824;-84
2021/09/02 00:35:45;;;;;;;23.60;15.07;;;;;;;10.71;95.47;102070.13;680390;29;2599;-85
2021/09/02 00:36:06;;;;;;;21.90;14.85;;;;;;;10.71;95.69;102062.28;680162;29;1213;-84
2021/09/02 00:36:26;;;;;;;22.30;15.53;;;;;;;10.68;96.07;102065.72;677958;29;1655;-84
2021/09/02 00:36:46;;;;;;;21.98;15.43;;;;;;;10.66;95.75;102063.94;674785;29;1153;-85
2021/09/02 00:37:07;;;;;;;22.63;15.13;;;;;;;10.63;95.82;102061.25;676039;29;1377;-84
2021/09/02 00:37:27;;;;;;;24.20;15.45;;;;;;;10.60;96.38;102056.00;675069;29;4370;-85
2021/09/02 00:37:48;;;;;;;24.93;15.37;;;;;;;10.57;96.68;102055.06;676312;29;1280;-85
2021/09/02 00:38:08;;;;;;;25.13;15.68;;;;;;;10.53;96.61;102068.94;672527;29;1748;-85
2021/09/02 00:38:28;;;;;;;24.33;15.60;;;;;;;10.53;96.81;102065.44;675827;29;3846;-85
2021/09/02 00:38:49;;;;;;;23.40;15.17;;;;;;;10.51;96.59;102060.19;676610;29;1461;-85
2021/09/02 00:39:10;;;;;;;21.57;14.90;;;;;;;10.49;96.52;102064.50;675474;29;1203;-85
2021/09/02 00:39:30;;;;;;;22.55;14.82;;;;;;;10.45;96.69;102065.31;676279;29;1407;-85
2021/09/02 00:39:51;;;;;;;22.60;15.13;;;;;;;10.44;97.00;102063.56;678426;29;1202;-85
2021/09/02 00:40:11;;;;;;;21.30;15.37;;;;;;;10.43;96.58;102067.03;678840;29;1354;-85
2021/09/02 00:40:32;;;;;;;23.70;15.85;;;;;;;10.43;96.49;102060.94;680561;29;4334;-85
2021/09/02 00:40:52;;;;;;;25.27;15.40;;;;;;;10.44;96.79;102062.66;683864;28;1176;-85
2021/09/02 00:41:12;;;;;;;25.37;15.47;;;;;;;10.43;96.86;102056.56;680783;28;1367;-85
2021/09/02 00:41:33;;;;;;;23.30;15.43;;;;;;;10.42;97.24;102060.03;677919;29;2205;-85
2021/09/02 00:41:53;;;;;;;23.03;15.43;;;;;;;10.41;96.87;102058.25;676397;29;1188;-85
2021/09/02 00:42:13;;;;;;;25.58;15.20;;;;;;;10.38;97.25;102063.44;673606;29;1221;-85
2021/09/02 00:42:34;;;;;;;23.87;15.50;;;;;;;10.35;96.78;102071.22;675989;29;1135;-85
2021/09/02 00:42:54;;;;;;;23.55;15.40;;;;;;;10.31;96.58;102057.16;673230;29;1185;-84
2021/09/02 00:43:14;;;;;;;25.17;15.20;;;;;;;10.32;96.51;102063.31;672409;29;1154;-85
2021/09/02 00:43:39;;;;;;;23.03;15.07;;;;;;;10.33;96.39;102062.47;673246;29;4492;-85
2021/09/02 00:43:59;;;;;;;23.73;15.55;;;;;;;10.32;96.64;102064.16;676609;29;908;-85
2021/09/02 00:44:52;;;;;;;24.13;15.50;;;;;;;10.32;96.83;102063.31;677114;29;1799;-85
2021/09/02 00:45:12;;;;;;;24.30;15.02;;;;;;;10.35;97.12;102071.22;677815;29;2262;-85
2021/09/02 00:45:33;;;;;;;23.57;15.17;;;;;;;10.33;96.67;102062.47;678605;29;849;-85
2021/09/02 00:45:56;;;;;;;23.55;15.23;;;;;;;10.31;96.46;102067.63;677911;29;3736;-85
2021/09/02 00:46:17;;;;;;;23.13;14.73;;;;;;;10.29;96.60;102066.72;676054;29;1104;-85
2021/09/02 00:46:38;;;;;;;23.40;15.43;;;;;;;10.27;96.82;102063.19;677800;29;4334;-85
2021/09/02 00:47:00;;;;;;;21.37;14.70;;;;;;;10.27;96.80;102059.72;677944;29;1327;-85
2021/09/02 00:47:27;;;;;;;23.23;15.13;;;;;;;10.30;96.48;102054.53;679651;28;2378;-85
2021/09/02 00:47:47;;;;;;;22.98;15.05;;;;;;;10.30;96.22;102059.75;679706;29;1251;-85
2021/09/02 00:48:07;;;;;;;21.87;14.70;;;;;;;10.26;96.26;102069.28;677726;29;1334;-85
2021/09/02 00:48:28;;;;;;;21.57;14.83;;;;;;;10.27;96.33;102059.72;676161;29;1125;-85
2021/09/02 00:48:50;;;;;;;22.40;14.70;;;;;;;10.28;96.35;102058.88;676563;29;1201;-85
2021/09/02 00:49:10;;;;;;;22.98;14.38;;;;;;;10.30;96.12;102070.22;673125;29;1744;-85
2021/09/02 00:49:30;;;;;;;23.60;14.95;;;;;;;10.33;96.01;102065.06;672450;29;4526;-85
2021/09/02 00:49:54;;;;;;;22.50;14.55;;;;;;;10.37;95.56;102070.41;678301;29;1263;-84
2021/09/02 00:50:14;;;;;;;20.75;14.70;;;;;;;10.36;95.70;102059.94;678246;29;1036;-84
2021/09/02 00:50:35;;;;;;;22.17;14.67;;;;;;;10.37;96.35;102062.56;674192;29;3151;-85
2021/09/02 00:50:56;;;;;;;23.60;15.05;;;;;;;10.35;95.97;102066.88;676858;29;1228;-84
2021/09/02 00:51:18;;;;;;;22.73;14.77;;;;;;;10.35;96.17;102060.78;669968;29;1160;-85
2021/09/02 00:51:39;;;;;;;20.92;14.38;;;;;;;10.33;95.77;102070.31;670827;29;932;-85
2021/09/02 00:52:02;;;;;;;21.87;14.30;;;;;;;10.30;95.56;102071.13;672794;29;924;-85
2021/09/02 00:52:25;;;;;;;22.13;14.30;;;;;;;10.33;95.60;102065.06;672857;29;941;-85
2021/09/02 00:52:45;;;;;;;21.38;14.23;;;;;;;10.33;95.78;102059.84;675274;29;4359;-85
2021/09/02 00:53:06;;;;;;;21.10;14.35;;;;;;;10.34;95.74;102057.28;678821;28;1338;-85
2021/09/02 00:53:29;;;;;;;20.90;13.97;;;;;;;10.36;95.51;102062.53;678281;29;4317;-85
2021/09/02 00:53:57;;;;;;;22.08;14.60;;;;;;;10.38;95.75;102060.81;676945;29;1110;-85
2021/09/02 00:54:18;;;;;;;22.52;14.63;;;;;;;10.38;96.21;102063.44;676622;29;1271;-85
2021/09/02 00:54:47;;;;;;;21.13;14.55;;;;;;;10.33;95.46;102062.47;674927;28;1402;-85
2021/09/02 00:55:08;;;;;;;23.42;14.30;;;;;;;10.31;95.12;102057.16;680366;28;1365;-85
2021/09/02 00:55:33;;;;;;;20.92;14.02;;;;;;;10.39;95.02;102059.97;673941;29;4392;-85
2021/09/02 00:55:53;;;;;;;20.35;13.73;;;;;;;10.49;94.76;102055.78;674528;29;1470;-85
2021/09/02 00:56:14;;;;;;;20.17;13.70;;;;;;;10.53;94.61;102058.47;674022;29;1860;-85
2021/09/02 00:56:34;;;;;;;18.90;13.55;;;;;;;10.46;94.15;102060.97;674088;29;2330;-85
2021/09/02 00:56:57;;;;;;;20.03;13.73;;;;;;;10.36;94.57;102059.94;672097;29;1204;-85
2021/09/02 00:57:18;;;;;;;20.02;13.80;;;;;;;10.28;94.85;102056.25;675330;29;1229;-84
2021/09/02 00:57:39;;;;;;;19.83;13.65;;;;;;;10.27;94.87;102050.13;672500;29;1178;-85
2021/09/02 00:58:00;;;;;;;18.67;13.73;;;;;;;10.29;94.88;102058.03;672923;29;1189;-84
2021/09/02 00:58:21;;;;;;;19.35;13.90;;;;;;;10.30;95.37;102050.22;669686;29;1162;-84
2021/09/02 00:58:45;;;;;;;20.42;14.10;;;;;;;10.29;95.45;102064.13;668795;29;4559;-85
2021/09/02 00:59:06;;;;;;;20.88;14.95;;;;;;;10.27;95.27;102057.09;676369;29;2018;-85
2021/09/02 00:59:29;;;;;;;20.30;14.00;;;;;;;10.26;95.10;102060.56;675805;29;2159;-85
2021/09/02 00:59:52;;;;;;;22.33;14.38;;;;;;;10.25;95.07;102049.22;672523;29;1205;-85
2021/09/02 01:00:16;;;;;;;20.30;14.10;;;;;;;10.29;95.10;102058.03;670043;29;1336;-85
2021/09/02 01:00:36;;;;;;;21.95;14.43;;;;;;;10.27;95.33;102054.50;668840;29;1428;-85
2021/09/02 01:00:57;;;;;;;21.43;14.57;;;;;;;10.21;95.15;102056.13;672532;29;1524;-85
2021/09/02 01:01:17;;;;;;;20.03;14.23;;;;;;;10.20;95.21;102057.00;670663;29;1237;-85
2021/09/02 01:01:38;;;;;;;21.00;13.65;;;;;;;10.14;95.10;102054.25;669075;29;4347;-85
2021/09/02 01:01:58;;;;;;;20.70;13.97;;;;;;;10.19;95.00;102057.84;667781;29;1175;-85
2021/09/02 01:02:20;;;;;;;20.65;14.52;;;;;;;10.23;95.20;102054.44;669586;29;3616;-85
2021/09/02 01:02:45;;;;;;;20.15;14.18;;;;;;;10.26;95.40;102052.72;669240;29;1441;-85
2021/09/02 01:03:05;;;;;;;22.23;14.38;;;;;;;10.26;95.04;102063.16;668642;29;1253;-85
2021/09/02 01:03:26;;;;;;;21.90;13.63;;;;;;;10.29;95.05;102053.66;673740;29;1099;-85
2021/09/02 01:03:46;;;;;;;17.98;13.07;;;;;;;10.31;94.76;102057.16;679720;29;1377;-85
2021/09/02 01:04:06;;;;;;;18.40;13.27;;;;;;;10.33;94.64;102054.63;672243;29;1134;-85
2021/09/02 01:04:27;;;;;;;18.25;13.13;;;;;;;10.36;94.93;102062.53;672326;29;4508;-85
2021/09/02 01:04:51;;;;;;;19.83;13.30;;;;;;;10.31;94.88;102056.31;670266;29;1231;-85
2021/09/02 01:05:13;;;;;;;20.83;14.30;;;;;;;10.26;94.53;102050.09;669336;29;2805;-85
2021/09/02 01:05:37;;;;;;;19.40;14.07;;;;;;;10.20;94.75;102054.38;669465;29;1146;-85
2021/09/02 01:05:57;;;;;;;19.20;13.73;;;;;;;10.19;94.85;102049.09;672201;29;1581;-85
2021/09/02 01:06:18;;;;;;;19.90;13.88;;;;;;;10.18;95.04;102045.63;674991;29;1003;-84
2021/09/02 01:06:39;;;;;;;19.57;14.07;;;;;;;10.23;94.76;102059.66;679156;28;1093;-85
2021/09/02 01:07:01;;;;;;;19.90;13.45;;;;;;;10.31;94.66;102057.16;678288;29;1070;-85
2021/09/02 01:07:23;;;;;;;18.08;13.18;;;;;;;10.44;94.26;102053.09;675296;29;1286;-85
2021/09/02 01:07:45;;;;;;;18.83;12.88;;;;;;;10.49;93.68;102051.44;670028;29;4366;-85
2021/09/02 01:08:06;;;;;;;19.55;13.35;;;;;;;10.42;93.33;102052.19;667459;29;1988;-85
2021/09/02 01:08:26;;;;;;;18.30;13.52;;;;;;;10.31;93.52;102044.09;668092;29;2447;-85
2021/09/02 01:08:48;;;;;;;19.73;13.67;;;;;;;10.21;94.18;102060.47;671570;29;1089;-85
2021/09/02 01:09:09;;;;;;;20.00;14.50;;;;;;;10.14;94.49;102053.38;674435;29;1428;-84
2021/09/02 01:09:31;;;;;;;21.00;14.02;;;;;;;10.10;94.70;102056.78;675816;29;1189;-85
2021/09/02 01:09:57;;;;;;;19.83;13.80;;;;;;;10.11;94.90;102059.44;677938;29;1133;-85
2021/09/02 01:10:17;;;;;;;19.00;13.40;;;;;;;10.13;94.90;102059.44;677774;29;1324;-85
2021/09/02 01:10:39;;;;;;;19.20;13.80;;;;;;;10.13;95.23;102052.47;678810;28;4506;-85
2021/09/02 01:11:00;;;;;;;19.17;13.90;;;;;;;10.16;94.77;102055.19;677726;29;1922;-85
2021/09/02 01:11:20;;;;;;;19.50;13.82;;;;;;;10.17;95.44;102058.66;678896;28;2126;-85
2021/09/02 01:11:41;;;;;;;19.17;13.80;;;;;;;10.16;94.74;102051.66;677260;29;1183;-85
2021/09/02 01:12:27;;;;;;;18.88;13.63;;;;;;;10.15;94.51;102049.88;674314;29;1477;-85
2021/09/02 01:12:50;;;;;;;18.02;13.77;;;;;;;10.19;94.73;102052.63;675200;29;1187;-85
2021/09/02 01:13:10;;;;;;;18.75;13.60;;;;;;;10.25;94.80;102056.19;674525;29;1324;-85
2021/09/02 01:13:30;;;;;;;19.70;13.50;;;;;;;10.37;94.40;102052.09;674308;29;4537;-84
2021/09/02 01:13:51;;;;;;;18.85;13.02;;;;;;;10.45;93.63;102059.19;675530;29;1156;-85
2021/09/02 01:14:18;;;;;;;17.20;12.63;;;;;;;10.51;93.63;102054.97;673759;29;2500;-84
2021/09/02 01:14:38;;;;;;;17.70;12.60;;;;;;;10.50;92.83;102054.94;673264;29;1134;-85
2021/09/02 01:15:10;;;;;;;18.13;13.45;;;;;;;10.37;92.72;102053.81;672543;29;1438;-85
2021/09/02 01:15:30;;;;;;;18.27;13.00;;;;;;;10.30;93.40;102047.59;677308;29;1014;-85
2021/09/02 01:15:50;;;;;;;18.85;12.90;;;;;;;10.29;93.59;102055.41;672458;29;1184;-85
2021/09/02 01:16:11;;;;;;;19.20;13.53;;;;;;;10.25;93.95;102050.97;669136;29;1187;-85
2021/09/02 01:16:31;;;;;;;18.80;13.88;;;;;;;10.19;93.73;102062.16;671953;29;4372;-85
2021/09/02 01:16:55;;;;;;;20.90;13.90;;;;;;;10.08;93.94;102054.16;672658;29;2060;-85
2021/09/02 01:17:15;;;;;;;20.08;13.77;;;;;;;10.08;94.31;102055.84;675556;29;1983;-85
2021/09/02 01:17:37;;;;;;;18.70;13.43;;;;;;;10.11;94.35;102056.81;674343;29;1043;-85
2021/09/02 01:18:00;;;;;;;19.48;13.60;;;;;;;10.12;94.59;102061.19;677605;29;1441;-84
2021/09/02 01:18:21;;;;;;;19.63;13.75;;;;;;;10.15;94.42;102048.19;679731;29;1289;-85
2021/09/02 01:18:41;;;;;;;19.95;13.85;;;;;;;10.14;94.24;102054.25;680384;29;1207;-85
2021/09/02 01:19:01;;;;;;;18.87;13.53;;;;;;;10.14;94.17;102054.25;676977;29;1288;-84
2021/09/02 01:19:22;;;;;;;19.98;13.63;;;;;;;10.18;94.35;102044.75;670004;29;1158;-85
2021/09/02 01:19:44;;;;;;;19.47;13.53;;;;;;;10.20;94.29;102045.63;669309;29;4340;-85
2021/09/02 01:20:07;;;;;;;18.60;13.13;;;;;;;10.15;94.42;102050.78;669671;29;3446;-85
2021/09/02 01:20:30;;;;;;;18.65;13.40;;;;;;;10.10;94.48;102056.78;669480;29;1250;-85
2021/09/02 01:20:51;;;;;;;22.77;13.63;;;;;;;10.05;94.37;102064.50;672703;29;1127;-85
2021/09/02 01:21:12;;;;;;;20.73;13.90;;;;;;;10.00;94.60;102063.56;673461;29;1455;-85
2021/09/02 01:21:33;;;;;;;20.37;13.60;;;;;;;10.02;94.85;102051.41;676505;29;1155;-84
2021/09/02 01:21:53;;;;;;;21.53;13.57;;;;;;;10.05;94.63;102054.97;678622;29;1389;-85
2021/09/02 01:22:13;;;;;;;19.50;13.57;;;;;;;10.15;94.24;102050.78;680081;28;1280;-85
2021/09/02 01:22:34;;;;;;;18.33;13.60;;;;;;;10.21;94.01;102050.91;679871;29;4406;-85
2021/09/02 01:22:58;;;;;;;17.92;13.35;;;;;;;10.28;93.54;102045.78;677230;29;1849;-85
2021/09/02 01:23:21;;;;;;;18.30;13.43;;;;;;;10.30;93.40;102049.31;677122;29;2266;-84
2021/09/02 01:23:41;;;;;;;18.00;13.15;;;;;;;10.23;93.20;102045.69;677497;29;1303;-84
2021/09/02 01:24:01;;;;;;;18.17;13.03;;;;;;;10.10;93.52;102056.78;674773;29;1203;-84
2021/09/02 01:24:22;;;;;;;18.63;13.43;;;;;;;9.98;93.85;102057.41;672697;29;1289;-85
2021/09/02 01:24:43;;;;;;;19.90;13.90;;;;;;;9.93;94.17;102059.03;672343;29;1147;-84
2021/09/02 01:25:09;;;;;;;18.35;13.50;;;;;;;9.87;95.07;102051.97;672448;29;1918;-85
2021/09/02 01:25:32;;;;;;;20.75;13.65;;;;;;;9.84;95.03;102055.41;672816;29;4380;-85
2021/09/02 01:25:53;;;;;;;19.13;13.35;;;;;;;9.92;94.64;102054.69;674291;29;1272;-84
2021/09/02 01:26:16;;;;;;;18.87;13.03;;;;;;;10.04;94.25;102052.31;679894;29;2409;-85
2021/09/02 01:26:39;;;;;;;17.90;12.73;;;;;;;10.14;93.86;102056.84;680307;29;1481;-85
2021/09/02 01:27:00;;;;;;;19.58;13.50;;;;;;;10.17;93.85;102053.44;678148;29;1255;-84
2021/09/02 01:27:20;;;;;;;19.30;13.73;;;;;;;10.15;94.20;102058.63;677221;29;1415;-84
2021/09/02 01:27:42;;;;;;;17.40;13.50;;;;;;;10.04;93.62;102054.94;674886;29;1084;-85
2021/09/02 01:28:06;;;;;;;18.30;13.63;;;;;;;9.93;93.95;102059.03;677762;29;1061;-85
2021/09/02 01:28:27;;;;;;;19.55;13.55;;;;;;;9.87;94.02;102052.88;677162;29;4587;-84
2021/09/02 01:28:47;;;;;;;20.17;13.70;;;;;;;9.88;93.91;102062.47;675206;29;1903;-85
2021/09/02 01:29:11;;;;;;;19.17;14.23;;;;;;;9.93;94.20;102049.50;675110;29;3807;-85
2021/09/02 01:29:31;;;;;;;20.05;13.75;;;;;;;9.96;94.31;102056.50;676047;29;1321;-85
2021/09/02 01:29:54;;;;;;;19.77;13.90;;;;;;;9.98;94.49;102054.78;675871;29;990;-85
2021/09/02 01:30:15;;;;;;;19.63;13.60;;;;;;;10.00;94.15;102051.38;676525;29;1397;-85
2021/09/02 01:30:37;;;;;;;19.48;13.32;;;;;;;10.11;94.08;102051.59;677712;29;1323;-85
2021/09/02 01:30:58;;;;;;;18.88;12.90;;;;;;;10.21;93.57;102048.28;677002;29;2419;-85
2021/09/02 01:31:20;;;;;;;18.67;12.80;;;;;;;10.20;93.57;102051.78;671964;29;1351;-85
2021/09/02 01:31:41;;;;;;;17.67;13.10;;;;;;;10.09;93.75;102047.19;671833;29;4374;-85
2021/09/02 01:32:02;;;;;;;18.17;13.35;;;;;;;10.01;93.69;102060.06;669498;29;2119;-85
2021/09/02 01:32:26;;;;;;;19.80;13.82;;;;;;;9.99;94.35;102062.66;669902;29;1203;-84
2021/09/02 01:32:49;;;;;;;19.45;13.80;;;;;;;9.97;94.21;102060.88;674847;29;1323;-85
2021/09/02 01:33:14;;;;;;;19.42;13.63;;;;;;;10.10;93.99;102064.63;672157;29;1338;-85
2021/09/02 01:33:35;;;;;;;18.52;13.30;;;;;;;10.19;93.46;102042.16;675304;29;1204;-85
2021/09/02 01:33:55;;;;;;;19.00;13.47;;;;;;;10.26;92.83;102048.38;675173;29;1208;-84
2021/09/02 01:34:18;;;;;;;17.90;12.87;;;;;;;10.33;93.22;102054.63;677674;29;1328;-85
2021/09/02 01:34:38;;;;;;;20.27;13.73;;;;;;;10.27;93.62;102054.50;674573;29;4442;-85
2021/09/02 01:35:00;;;;;;;19.43;14.10;;;;;;;10.18;93.84;102050.84;674339;29;2075;-85
2021/09/02 01:35:21;;;;;;;19.23;13.55;;;;;;;10.10;93.83;102051.56;672057;29;1240;-85
2021/09/02 01:35:43;;;;;;;20.30;13.43;;;;;;;10.04;94.00;102054.94;671911;29;1301;-84
2021/09/02 01:36:03;;;;;;;22.13;14.13;;;;;;;9.97;94.14;102056.53;675427;29;1738;-84
2021/09/02 01:36:24;;;;;;;20.73;14.07;;;;;;;9.94;94.24;102055.59;677723;29;1142;-85
2021/09/02 01:36:46;;;;;;;22.58;14.63;;;;;;;9.95;94.28;102047.78;676382;29;1292;-85
2021/09/02 01:37:09;;;;;;;21.00;14.18;;;;;;;10.01;93.83;102057.47;673463;29;1456;-85
2021/09/02 01:37:39;;;;;;;16.95;12.40;;;;;;;10.10;93.67;102057.66;676111;29;4367;-84
2021/09/02 01:38:03;;;;;;;20.20;14.10;;;;;;;10.05;94.35;102057.56;675319;29;3511;-85
2021/09/02 01:38:23;;;;;;;20.92;14.35;;;;;;;9.99;95.03;102056.56;674769;29;1309;-84
2021/09/02 01:38:44;;;;;;;20.83;14.40;;;;;;;9.92;94.45;102052.06;674355;29;1217;-85
2021/09/02 01:39:05;;;;;;;22.10;14.60;;;;;;;9.88;94.92;102056.34;669460;29;1656;-85
2021/09/02 01:39:25;;;;;;;21.10;13.97;;;;;;;9.86;94.87;102058.06;674431;29;1216;-85
2021/09/02 01:39:48;;;;;;;19.73;13.93;;;;;;;9.90;94.36;102054.66;675300;29;1138;-85
2021/09/02 01:40:17;;;;;;;19.10;13.73;;;;;;;9.95;94.41;102052.13;675805;29;1130;-85